Kobuk Valley National Park, AK

3:41 PM AKDT op 02 september 2014 (GMT -0800)
Baker Memorial | Change Station
CLOSE
Current Station
Luchthaven
Location: Kiana,
Geometrische hoogte: 151 ft
Nabije weerstations

Hoogte 151 ft 66.98 °N, 160.44 °W | Updated 40 minutes ago

Light Rain
Lichte regen
39 °F
Voelt als 31 °F
N
14
Wind Variabel Wind van WZW
Gusts 22 mijl/u

Vandaag
Hoog -- | Laag -- °F
--% Kans op neerslag
Gisteren
Hoog -- | Laag -- °F
Precip. -- inches
7:14 AM 10:05 PM
Eerste kwartier, 56% visible
Druk 29.98 inches
Zicht 10.0 mijlen
Wolken Geheel bewolkt 3300 ft
Gevoelstemperatuur 31 °F
Dauwpunt 36 °F
Vochtigheid 89%
Neerslag 0.00 inches
Dikte sneeuw Niet beschikbaar.
UV 1 van de 12
Pollen Niet beschikbaar.
Luchtkwaliteit Niet beschikbaar.
Flu Activity Niet beschikbaar.
METAR PAIK 022301Z AUTO 24012G19KT 10SM -RA OVC033 04/02 A2985 RMK AO2 PK WND 25026/2204 RAB2202 SLP151 P0000 T00390022

More Conditions Fewer Conditions

Druk 29.98 inches
Zicht 10.0 mijlen
Wolken Geheel bewolkt 3300 ft
Gevoelstemperatuur 31 °F
Dauwpunt 36 °F
Vochtigheid 89%
Neerslag 0.00 inches
Dikte sneeuw Niet beschikbaar.
UV 1 van de 12
Pollen Niet beschikbaar.
Luchtkwaliteit Niet beschikbaar.
Flu Activity Niet beschikbaar.
METAR PAIK 022301Z AUTO 24012G19KT 10SM -RA OVC033 04/02 A2985 RMK AO2 PK WND 25026/2204 RAB2202 SLP151 P0000 T00390022

More Conditions Fewer Conditions

10-Day Weather Forecast

Almanac

Astronomie

Sep. 02, 2014 Opkomst Ondergang
Werkelijke tijd 7:14 AM AKDT 10:05 PM AKDT
Burgerlijke schemering 6:11 AM AKDT 11:07 PM AKDT
Nautische schemering 4:33 AM AKDT 12:42 AM AKDT
Astronomische schemering Sun does not rise Sun does not rise
Maan 6:45 PM AKDT 11:35 PM AKDT
Golflengte van het zichtbare licht 16h 56m
Daglengte
14h 50m
Tomorrow will be 7m 45s shorter.
Eerste kwartier, 56% of the Moon is Illuminated
Vandaag
Eerste kwartier
sep 8
Volle maan
sep 15
Laatste kwartier
sep 24
Nieuw
oktober 1
Eerste kwartier

Extremen vandaag

State Highs State Lows

Community

WunderPhotos

Upload Photos

1,749,799 foto’s ge-upload!

Nearby

Luchtkwaliteit

Not available.

Dikte sneeuw

Station Depth Geometrische hoogte
Rocky Point 5 in 500 ft
Gobblers Knob 0 in 2030 ft
Coldfoot 1 in 1040 ft
Atigun Pass 8 in 4800 ft
Imnaviat Creek 16 in 3050 ft

Aardbevingen

Stad Distance Mag. Time & Date
No recent earthquake activity has been reported nearby.
Minimum magnitude displayed is 2.5.

Watertemperatuur langs de kust

Plaats Temperatuur
Geen meldingen van stations

Nabije weerstations